sensor_id;sensor_type;location;lat;lon;timestamp;P1;durP1;ratioP1;P2;durP2;ratioP2
52786;SDS011;38661;53.152;5.846;2022-12-07T00:01:45;6.78;;;1.00;;
52786;SDS011;38661;53.152;5.846;2022-12-07T00:04:12;4.10;;;0.80;;
52786;SDS011;38661;53.152;5.846;2022-12-07T00:06:43;3.38;;;1.00;;
52786;SDS011;38661;53.152;5.846;2022-12-07T00:09:11;4.13;;;1.20;;
52786;SDS011;38661;53.152;5.846;2022-12-07T00:11:41;8.43;;;1.27;;
52786;SDS011;38661;53.152;5.846;2022-12-07T00:14:09;5.40;;;1.02;;
52786;SDS011;38661;53.152;5.846;2022-12-07T00:16:37;5.30;;;1.10;;
52786;SDS011;38661;53.152;5.846;2022-12-07T00:19:03;4.18;;;0.90;;
52786;SDS011;38661;53.152;5.846;2022-12-07T00:21:30;11.32;;;1.60;;
52786;SDS011;38661;53.152;5.846;2022-12-07T00:23:58;7.45;;;1.00;;
52786;SDS011;38661;53.152;5.846;2022-12-07T00:26:27;6.35;;;1.15;;
52786;SDS011;38661;53.152;5.846;2022-12-07T00:28:59;5.97;;;1.30;;
52786;SDS011;38661;53.152;5.846;2022-12-07T00:31:38;5.57;;;1.17;;
52786;SDS011;38661;53.152;5.846;2022-12-07T00:34:07;4.97;;;2.08;;
52786;SDS011;38661;53.152;5.846;2022-12-07T00:36:38;11.30;;;1.40;;
52786;SDS011;38661;53.152;5.846;2022-12-07T00:39:04;5.60;;;1.48;;
52786;SDS011;38661;53.152;5.846;2022-12-07T00:41:30;12.13;;;1.58;;
52786;SDS011;38661;53.152;5.846;2022-12-07T00:43:56;4.75;;;1.70;;
52786;SDS011;38661;53.152;5.846;2022-12-07T00:46:22;4.45;;;0.82;;
52786;SDS011;38661;53.152;5.846;2022-12-07T00:48:49;9.50;;;1.00;;
52786;SDS011;38661;53.152;5.846;2022-12-07T00:51:16;6.40;;;1.17;;
52786;SDS011;38661;53.152;5.846;2022-12-07T00:53:43;3.55;;;0.70;;
52786;SDS011;38661;53.152;5.846;2022-12-07T00:56:10;7.75;;;1.02;;
52786;SDS011;38661;53.152;5.846;2022-12-07T00:58:37;2.25;;;0.80;;
52786;SDS011;38661;53.152;5.846;2022-12-07T01:01:04;5.68;;;0.98;;
52786;SDS011;38661;53.152;5.846;2022-12-07T01:03:31;2.35;;;0.52;;
52786;SDS011;38661;53.152;5.846;2022-12-07T01:05:57;3.22;;;0.55;;
52786;SDS011;38661;53.152;5.846;2022-12-07T01:08:23;3.78;;;0.57;;
52786;SDS011;38661;53.152;5.846;2022-12-07T01:10:56;4.10;;;0.65;;
52786;SDS011;38661;53.152;5.846;2022-12-07T01:13:30;5.13;;;0.80;;
52786;SDS011;38661;53.152;5.846;2022-12-07T01:15:58;3.63;;;0.82;;
52786;SDS011;38661;53.152;5.846;2022-12-07T01:18:26;5.57;;;0.88;;
52786;SDS011;38661;53.152;5.846;2022-12-07T01:21:03;9.23;;;1.38;;
52786;SDS011;38661;53.152;5.846;2022-12-07T01:23:30;5.78;;;1.90;;
52786;SDS011;38661;53.152;5.846;2022-12-07T01:25:57;6.57;;;1.00;;
52786;SDS011;38661;53.152;5.846;2022-12-07T01:28:25;6.45;;;1.15;;
52786;SDS011;38661;53.152;5.846;2022-12-07T01:30:55;5.20;;;0.90;;
52786;SDS011;38661;53.152;5.846;2022-12-07T01:33:26;5.03;;;1.00;;
52786;SDS011;38661;53.152;5.846;2022-12-07T01:36:03;8.68;;;2.17;;
52786;SDS011;38661;53.152;5.846;2022-12-07T01:38:31;8.15;;;1.20;;
52786;SDS011;38661;53.152;5.846;2022-12-07T01:40:58;8.05;;;1.05;;
52786;SDS011;38661;53.152;5.846;2022-12-07T01:43:25;5.90;;;1.15;;
52786;SDS011;38661;53.152;5.846;2022-12-07T01:45:53;7.78;;;0.90;;
52786;SDS011;38661;53.152;5.846;2022-12-07T01:48:31;7.93;;;2.55;;
52786;SDS011;38661;53.152;5.846;2022-12-07T01:51:03;5.30;;;1.15;;
52786;SDS011;38661;53.152;5.846;2022-12-07T01:53:31;4.38;;;1.10;;
52786;SDS011;38661;53.152;5.846;2022-12-07T01:56:01;5.18;;;0.95;;
52786;SDS011;38661;53.152;5.846;2022-12-07T01:58:26;11.75;;;1.33;;
52786;SDS011;38661;53.152;5.846;2022-12-07T02:00:53;5.05;;;1.63;;
52786;SDS011;38661;53.152;5.846;2022-12-07T02:05:48;7.95;;;1.38;;
52786;SDS011;38661;53.152;5.846;2022-12-07T02:08:14;10.98;;;1.20;;
52786;SDS011;38661;53.152;5.846;2022-12-07T02:10:41;11.60;;;1.40;;
52786;SDS011;38661;53.152;5.846;2022-12-07T02:13:11;8.75;;;1.10;;
52786;SDS011;38661;53.152;5.846;2022-12-07T02:24:45;12.20;;;3.22;;
52786;SDS011;38661;53.152;5.846;2022-12-07T02:30:09;5.50;;;1.10;;
52786;SDS011;38661;53.152;5.846;2022-12-07T02:32:45;6.40;;;1.50;;
52786;SDS011;38661;53.152;5.846;2022-12-07T02:36:04;11.30;;;1.77;;
52786;SDS011;38661;53.152;5.846;2022-12-07T02:41:06;8.23;;;1.55;;
52786;SDS011;38661;53.152;5.846;2022-12-07T02:43:50;6.85;;;1.38;;
52786;SDS011;38661;53.152;5.846;2022-12-07T02:46:21;6.95;;;1.80;;
52786;SDS011;38661;53.152;5.846;2022-12-07T02:48:51;7.07;;;1.27;;
52786;SDS011;38661;53.152;5.846;2022-12-07T02:51:19;11.68;;;1.95;;
52786;SDS011;38661;53.152;5.846;2022-12-07T02:53:46;12.10;;;1.55;;
52786;SDS011;38661;53.152;5.846;2022-12-07T03:01:10;3.97;;;1.20;;
52786;SDS011;38661;53.152;5.846;2022-12-07T03:03:52;5.35;;;1.20;;
52786;SDS011;38661;53.152;5.846;2022-12-07T03:06:36;5.43;;;1.10;;
52786;SDS011;38661;53.152;5.846;2022-12-07T03:09:13;7.45;;;1.27;;
52786;SDS011;38661;53.152;5.846;2022-12-07T03:11:47;10.43;;;2.45;;
52786;SDS011;38661;53.152;5.846;2022-12-07T03:14:17;9.00;;;1.00;;
52786;SDS011;38661;53.152;5.846;2022-12-07T03:16:50;5.00;;;1.10;;
52786;SDS011;38661;53.152;5.846;2022-12-07T03:19:23;3.30;;;1.05;;
52786;SDS011;38661;53.152;5.846;2022-12-07T03:21:56;5.55;;;1.30;;
52786;SDS011;38661;53.152;5.846;2022-12-07T03:24:27;12.00;;;1.60;;
52786;SDS011;38661;53.152;5.846;2022-12-07T03:27:16;6.75;;;0.95;;
52786;SDS011;38661;53.152;5.846;2022-12-07T03:29:51;13.40;;;2.17;;
52786;SDS011;38661;53.152;5.846;2022-12-07T03:32:29;10.18;;;1.38;;
52786;SDS011;38661;53.152;5.846;2022-12-07T03:35:01;8.43;;;1.73;;
52786;SDS011;38661;53.152;5.846;2022-12-07T03:37:33;8.95;;;1.20;;
52786;SDS011;38661;53.152;5.846;2022-12-07T03:42:31;7.18;;;1.13;;
52786;SDS011;38661;53.152;5.846;2022-12-07T03:44:58;2.55;;;0.50;;
52786;SDS011;38661;53.152;5.846;2022-12-07T03:47:30;2.85;;;0.57;;
52786;SDS011;38661;53.152;5.846;2022-12-07T03:50:10;4.53;;;1.00;;
52786;SDS011;38661;53.152;5.846;2022-12-07T03:52:45;3.92;;;0.65;;
52786;SDS011;38661;53.152;5.846;2022-12-07T03:55:18;5.60;;;0.85;;
52786;SDS011;38661;53.152;5.846;2022-12-07T03:57:48;6.40;;;0.95;;
52786;SDS011;38661;53.152;5.846;2022-12-07T04:00:18;4.60;;;1.48;;
52786;SDS011;38661;53.152;5.846;2022-12-07T04:02:44;7.93;;;1.45;;
52786;SDS011;38661;53.152;5.846;2022-12-07T04:05:10;8.68;;;2.45;;
52786;SDS011;38661;53.152;5.846;2022-12-07T04:07:36;3.92;;;0.85;;
52786;SDS011;38661;53.152;5.846;2022-12-07T04:10:02;6.20;;;1.23;;
52786;SDS011;38661;53.152;5.846;2022-12-07T04:12:29;7.80;;;1.08;;
52786;SDS011;38661;53.152;5.846;2022-12-07T04:14:54;5.88;;;1.30;;
52786;SDS011;38661;53.152;5.846;2022-12-07T04:17:20;7.20;;;1.10;;
52786;SDS011;38661;53.152;5.846;2022-12-07T04:19:46;5.20;;;1.20;;
52786;SDS011;38661;53.152;5.846;2022-12-07T04:22:11;4.65;;;1.20;;
52786;SDS011;38661;53.152;5.846;2022-12-07T04:24:37;6.45;;;1.00;;
52786;SDS011;38661;53.152;5.846;2022-12-07T04:27:04;7.00;;;0.95;;
52786;SDS011;38661;53.152;5.846;2022-12-07T04:29:29;5.32;;;1.08;;
52786;SDS011;38661;53.152;5.846;2022-12-07T04:31:55;7.85;;;1.00;;
52786;SDS011;38661;53.152;5.846;2022-12-07T04:34:20;7.03;;;1.42;;
52786;SDS011;38661;53.152;5.846;2022-12-07T04:36:47;10.40;;;2.40;;
52786;SDS011;38661;53.152;5.846;2022-12-07T04:39:23;5.72;;;1.33;;
52786;SDS011;38661;53.152;5.846;2022-12-07T04:41:50;6.43;;;1.10;;
52786;SDS011;38661;53.152;5.846;2022-12-07T04:44:17;7.20;;;1.92;;
52786;SDS011;38661;53.152;5.846;2022-12-07T04:46:43;6.38;;;1.08;;
52786;SDS011;38661;53.152;5.846;2022-12-07T04:49:10;5.55;;;1.85;;
52786;SDS011;38661;53.152;5.846;2022-12-07T04:51:36;6.47;;;1.48;;
52786;SDS011;38661;53.152;5.846;2022-12-07T04:54:02;6.82;;;1.30;;
52786;SDS011;38661;53.152;5.846;2022-12-07T04:56:28;5.80;;;1.70;;
52786;SDS011;38661;53.152;5.846;2022-12-07T04:58:53;4.53;;;1.08;;
52786;SDS011;38661;53.152;5.846;2022-12-07T05:01:20;9.73;;;1.02;;
52786;SDS011;38661;53.152;5.846;2022-12-07T05:03:46;6.88;;;1.15;;
52786;SDS011;38661;53.152;5.846;2022-12-07T05:06:12;8.13;;;1.20;;
52786;SDS011;38661;53.152;5.846;2022-12-07T05:08:39;4.63;;;1.23;;
52786;SDS011;38661;53.152;5.846;2022-12-07T05:11:06;2.97;;;1.40;;
52786;SDS011;38661;53.152;5.846;2022-12-07T05:13:33;8.27;;;1.00;;
52786;SDS011;38661;53.152;5.846;2022-12-07T05:16:00;5.18;;;1.30;;
52786;SDS011;38661;53.152;5.846;2022-12-07T05:18:26;5.72;;;0.88;;
52786;SDS011;38661;53.152;5.846;2022-12-07T05:20:52;5.25;;;1.52;;
52786;SDS011;38661;53.152;5.846;2022-12-07T05:23:18;3.78;;;0.93;;
52786;SDS011;38661;53.152;5.846;2022-12-07T05:25:44;5.93;;;1.10;;
52786;SDS011;38661;53.152;5.846;2022-12-07T05:28:10;6.15;;;1.40;;
52786;SDS011;38661;53.152;5.846;2022-12-07T05:30:36;5.80;;;1.60;;
52786;SDS011;38661;53.152;5.846;2022-12-07T05:33:02;7.13;;;2.13;;
52786;SDS011;38661;53.152;5.846;2022-12-07T05:35:28;5.30;;;1.38;;
52786;SDS011;38661;53.152;5.846;2022-12-07T05:37:55;4.32;;;1.30;;
52786;SDS011;38661;53.152;5.846;2022-12-07T05:40:21;7.90;;;2.22;;
52786;SDS011;38661;53.152;5.846;2022-12-07T05:42:46;8.60;;;2.10;;
52786;SDS011;38661;53.152;5.846;2022-12-07T05:45:12;7.53;;;1.52;;
52786;SDS011;38661;53.152;5.846;2022-12-07T05:47:38;6.68;;;1.40;;
52786;SDS011;38661;53.152;5.846;2022-12-07T05:50:04;7.40;;;1.42;;
52786;SDS011;38661;53.152;5.846;2022-12-07T05:52:30;8.30;;;2.13;;
52786;SDS011;38661;53.152;5.846;2022-12-07T05:54:56;15.85;;;1.83;;
52786;SDS011;38661;53.152;5.846;2022-12-07T05:57:22;10.98;;;5.53;;
52786;SDS011;38661;53.152;5.846;2022-12-07T05:59:47;10.85;;;2.10;;
52786;SDS011;38661;53.152;5.846;2022-12-07T06:02:14;15.13;;;3.30;;
52786;SDS011;38661;53.152;5.846;2022-12-07T06:04:42;7.68;;;1.98;;
52786;SDS011;38661;53.152;5.846;2022-12-07T06:07:09;11.45;;;5.53;;
52786;SDS011;38661;53.152;5.846;2022-12-07T06:09:36;19.63;;;7.82;;
52786;SDS011;38661;53.152;5.846;2022-12-07T06:12:02;34.97;;;11.98;;
52786;SDS011;38661;53.152;5.846;2022-12-07T06:14:47;43.50;;;17.48;;
52786;SDS011;38661;53.152;5.846;2022-12-07T06:17:13;21.42;;;5.55;;
52786;SDS011;38661;53.152;5.846;2022-12-07T06:19:39;10.35;;;2.35;;
52786;SDS011;38661;53.152;5.846;2022-12-07T06:22:05;14.05;;;2.17;;
52786;SDS011;38661;53.152;5.846;2022-12-07T06:24:32;9.25;;;3.08;;
52786;SDS011;38661;53.152;5.846;2022-12-07T06:26:58;14.38;;;2.58;;
52786;SDS011;38661;53.152;5.846;2022-12-07T06:29:24;7.30;;;1.80;;
52786;SDS011;38661;53.152;5.846;2022-12-07T06:31:50;15.10;;;2.25;;
52786;SDS011;38661;53.152;5.846;2022-12-07T06:34:17;7.70;;;2.50;;
52786;SDS011;38661;53.152;5.846;2022-12-07T06:36:44;10.75;;;2.38;;
52786;SDS011;38661;53.152;5.846;2022-12-07T06:39:10;8.45;;;1.75;;
52786;SDS011;38661;53.152;5.846;2022-12-07T06:41:39;6.32;;;1.70;;
52786;SDS011;38661;53.152;5.846;2022-12-07T06:44:05;7.85;;;1.45;;
52786;SDS011;38661;53.152;5.846;2022-12-07T06:46:32;11.32;;;1.80;;
52786;SDS011;38661;53.152;5.846;2022-12-07T06:48:58;4.72;;;1.63;;
52786;SDS011;38661;53.152;5.846;2022-12-07T06:51:23;11.02;;;2.08;;
52786;SDS011;38661;53.152;5.846;2022-12-07T06:53:49;10.10;;;4.15;;
52786;SDS011;38661;53.152;5.846;2022-12-07T06:56:15;9.73;;;5.55;;
52786;SDS011;38661;53.152;5.846;2022-12-07T06:58:41;11.52;;;3.22;;
52786;SDS011;38661;53.152;5.846;2022-12-07T07:01:13;7.63;;;4.93;;
52786;SDS011;38661;53.152;5.846;2022-12-07T07:03:40;12.45;;;6.55;;
52786;SDS011;38661;53.152;5.846;2022-12-07T07:06:06;9.95;;;3.65;;
52786;SDS011;38661;53.152;5.846;2022-12-07T07:08:33;8.90;;;1.88;;
52786;SDS011;38661;53.152;5.846;2022-12-07T07:10:59;9.32;;;1.92;;
52786;SDS011;38661;53.152;5.846;2022-12-07T07:13:25;7.45;;;1.40;;
52786;SDS011;38661;53.152;5.846;2022-12-07T07:15:51;5.00;;;2.00;;
52786;SDS011;38661;53.152;5.846;2022-12-07T07:18:17;7.72;;;1.80;;
52786;SDS011;38661;53.152;5.846;2022-12-07T07:20:42;10.18;;;1.85;;
52786;SDS011;38661;53.152;5.846;2022-12-07T07:23:08;10.48;;;2.17;;
52786;SDS011;38661;53.152;5.846;2022-12-07T07:25:34;8.07;;;1.88;;
52786;SDS011;38661;53.152;5.846;2022-12-07T07:28:00;9.10;;;1.10;;
52786;SDS011;38661;53.152;5.846;2022-12-07T07:30:26;17.70;;;1.80;;
52786;SDS011;38661;53.152;5.846;2022-12-07T07:32:59;8.88;;;2.40;;
52786;SDS011;38661;53.152;5.846;2022-12-07T07:35:26;7.85;;;1.40;;
52786;SDS011;38661;53.152;5.846;2022-12-07T07:37:53;8.82;;;2.00;;
52786;SDS011;38661;53.152;5.846;2022-12-07T07:40:19;7.07;;;1.83;;
52786;SDS011;38661;53.152;5.846;2022-12-07T07:42:46;9.05;;;1.85;;
52786;SDS011;38661;53.152;5.846;2022-12-07T07:45:13;6.93;;;2.15;;
52786;SDS011;38661;53.152;5.846;2022-12-07T07:47:39;5.80;;;1.75;;
52786;SDS011;38661;53.152;5.846;2022-12-07T07:50:05;9.50;;;2.03;;
52786;SDS011;38661;53.152;5.846;2022-12-07T07:52:31;8.88;;;2.58;;
52786;SDS011;38661;53.152;5.846;2022-12-07T07:54:57;9.52;;;1.70;;
52786;SDS011;38661;53.152;5.846;2022-12-07T07:57:23;10.30;;;2.20;;
52786;SDS011;38661;53.152;5.846;2022-12-07T07:59:49;8.48;;;2.80;;
52786;SDS011;38661;53.152;5.846;2022-12-07T08:02:15;13.80;;;8.60;;
52786;SDS011;38661;53.152;5.846;2022-12-07T08:04:42;19.13;;;13.02;;
52786;SDS011;38661;53.152;5.846;2022-12-07T08:07:08;18.27;;;7.68;;
52786;SDS011;38661;53.152;5.846;2022-12-07T08:09:34;10.80;;;4.75;;
52786;SDS011;38661;53.152;5.846;2022-12-07T08:12:00;12.80;;;4.22;;
52786;SDS011;38661;53.152;5.846;2022-12-07T08:14:26;12.38;;;4.40;;
52786;SDS011;38661;53.152;5.846;2022-12-07T08:16:53;11.40;;;2.80;;
52786;SDS011;38661;53.152;5.846;2022-12-07T08:19:19;11.68;;;3.50;;
52786;SDS011;38661;53.152;5.846;2022-12-07T08:21:45;12.00;;;3.75;;
52786;SDS011;38661;53.152;5.846;2022-12-07T08:24:11;7.15;;;2.05;;
52786;SDS011;38661;53.152;5.846;2022-12-07T08:26:36;5.80;;;2.38;;
52786;SDS011;38661;53.152;5.846;2022-12-07T08:29:02;5.13;;;1.60;;
52786;SDS011;38661;53.152;5.846;2022-12-07T08:31:28;3.38;;;0.82;;
52786;SDS011;38661;53.152;5.846;2022-12-07T08:33:54;5.68;;;2.55;;
52786;SDS011;38661;53.152;5.846;2022-12-07T08:36:19;9.48;;;1.17;;
52786;SDS011;38661;53.152;5.846;2022-12-07T08:38:46;4.22;;;1.08;;
52786;SDS011;38661;53.152;5.846;2022-12-07T08:41:12;5.50;;;1.13;;
52786;SDS011;38661;53.152;5.846;2022-12-07T08:43:38;5.35;;;1.40;;
52786;SDS011;38661;53.152;5.846;2022-12-07T08:49:13;5.80;;;1.05;;
52786;SDS011;38661;53.152;5.846;2022-12-07T08:51:42;5.75;;;1.20;;
52786;SDS011;38661;53.152;5.846;2022-12-07T08:54:09;2.97;;;0.85;;
52786;SDS011;38661;53.152;5.846;2022-12-07T08:56:37;4.57;;;1.40;;
52786;SDS011;38661;53.152;5.846;2022-12-07T08:59:04;5.95;;;1.40;;
52786;SDS011;38661;53.152;5.846;2022-12-07T09:01:30;7.82;;;1.42;;
52786;SDS011;38661;53.152;5.846;2022-12-07T09:03:56;13.05;;;3.45;;
52786;SDS011;38661;53.152;5.846;2022-12-07T09:06:21;5.68;;;2.83;;
52786;SDS011;38661;53.152;5.846;2022-12-07T09:08:53;4.90;;;1.23;;
52786;SDS011;38661;53.152;5.846;2022-12-07T09:11:23;6.30;;;1.67;;
52786;SDS011;38661;53.152;5.846;2022-12-07T09:13:49;6.65;;;1.58;;
52786;SDS011;38661;53.152;5.846;2022-12-07T09:16:14;7.35;;;1.20;;
52786;SDS011;38661;53.152;5.846;2022-12-07T09:18:40;5.93;;;1.30;;
52786;SDS011;38661;53.152;5.846;2022-12-07T09:21:06;6.07;;;1.33;;
52786;SDS011;38661;53.152;5.846;2022-12-07T09:23:32;6.20;;;1.48;;
52786;SDS011;38661;53.152;5.846;2022-12-07T09:26:02;6.85;;;1.98;;
52786;SDS011;38661;53.152;5.846;2022-12-07T09:28:30;4.88;;;1.40;;
52786;SDS011;38661;53.152;5.846;2022-12-07T09:30:56;8.27;;;2.08;;
52786;SDS011;38661;53.152;5.846;2022-12-07T09:33:21;6.85;;;2.00;;
52786;SDS011;38661;53.152;5.846;2022-12-07T09:35:48;7.38;;;1.67;;
52786;SDS011;38661;53.152;5.846;2022-12-07T09:38:15;8.93;;;2.08;;
52786;SDS011;38661;53.152;5.846;2022-12-07T09:40:41;10.00;;;1.73;;
52786;SDS011;38661;53.152;5.846;2022-12-07T09:43:12;7.45;;;1.98;;
52786;SDS011;38661;53.152;5.846;2022-12-07T09:45:40;10.63;;;1.92;;
52786;SDS011;38661;53.152;5.846;2022-12-07T09:48:14;8.45;;;2.33;;
52786;SDS011;38661;53.152;5.846;2022-12-07T09:50:43;5.07;;;1.85;;
52786;SDS011;38661;53.152;5.846;2022-12-07T09:53:10;7.60;;;1.63;;
52786;SDS011;38661;53.152;5.846;2022-12-07T09:55:50;6.30;;;1.48;;
52786;SDS011;38661;53.152;5.846;2022-12-07T09:58:34;7.97;;;1.98;;
52786;SDS011;38661;53.152;5.846;2022-12-07T10:01:21;6.90;;;1.57;;
52786;SDS011;38661;53.152;5.846;2022-12-07T10:06:19;8.70;;;1.50;;
52786;SDS011;38661;53.152;5.846;2022-12-07T10:08:45;6.72;;;1.63;;
52786;SDS011;38661;53.152;5.846;2022-12-07T10:11:11;8.45;;;1.38;;
52786;SDS011;38661;53.152;5.846;2022-12-07T10:13:40;5.32;;;1.65;;
52786;SDS011;38661;53.152;5.846;2022-12-07T10:18:51;4.70;;;1.10;;
52786;SDS011;38661;53.152;5.846;2022-12-07T10:21:19;5.55;;;1.63;;
52786;SDS011;38661;53.152;5.846;2022-12-07T10:24:31;8.93;;;2.17;;
52786;SDS011;38661;53.152;5.846;2022-12-07T10:31:40;2.78;;;0.93;;
52786;SDS011;38661;53.152;5.846;2022-12-07T10:34:12;3.90;;;1.75;;
52786;SDS011;38661;53.152;5.846;2022-12-07T10:36:51;8.55;;;1.58;;
52786;SDS011;38661;53.152;5.846;2022-12-07T10:39:19;45.20;;;22.70;;
52786;SDS011;38661;53.152;5.846;2022-12-07T10:44:22;7.80;;;2.38;;
52786;SDS011;38661;53.152;5.846;2022-12-07T11:11:16;5.93;;;1.20;;
52786;SDS011;38661;53.152;5.846;2022-12-07T11:14:09;3.60;;;1.17;;
52786;SDS011;38661;53.152;5.846;2022-12-07T11:25:15;4.93;;;1.20;;
52786;SDS011;38661;53.152;5.846;2022-12-07T11:28:11;6.28;;;2.47;;
52786;SDS011;38661;53.152;5.846;2022-12-07T11:30:47;7.95;;;2.03;;
52786;SDS011;38661;53.152;5.846;2022-12-07T11:33:36;4.57;;;1.10;;
52786;SDS011;38661;53.152;5.846;2022-12-07T11:39:39;4.30;;;1.23;;
52786;SDS011;38661;53.152;5.846;2022-12-07T11:42:12;11.68;;;2.72;;
52786;SDS011;38661;53.152;5.846;2022-12-07T11:44:47;8.25;;;1.45;;
52786;SDS011;38661;53.152;5.846;2022-12-07T11:47:26;8.35;;;1.40;;
52786;SDS011;38661;53.152;5.846;2022-12-07T11:55:16;2.80;;;1.50;;
52786;SDS011;38661;53.152;5.846;2022-12-07T11:57:53;3.63;;;0.80;;
52786;SDS011;38661;53.152;5.846;2022-12-07T12:02:53;6.47;;;2.95;;
52786;SDS011;38661;53.152;5.846;2022-12-07T12:05:29;5.85;;;1.33;;
52786;SDS011;38661;53.152;5.846;2022-12-07T12:13:40;9.90;;;2.20;;
52786;SDS011;38661;53.152;5.846;2022-12-07T12:22:45;4.40;;;1.88;;
52786;SDS011;38661;53.152;5.846;2022-12-07T12:31:11;4.72;;;1.27;;
52786;SDS011;38661;53.152;5.846;2022-12-07T12:33:59;13.40;;;4.25;;
52786;SDS011;38661;53.152;5.846;2022-12-07T12:51:51;8.27;;;1.23;;
52786;SDS011;38661;53.152;5.846;2022-12-07T12:54:20;7.60;;;1.67;;
52786;SDS011;38661;53.152;5.846;2022-12-07T13:04:56;5.80;;;1.23;;
52786;SDS011;38661;53.152;5.846;2022-12-07T13:20:53;34.15;;;14.23;;
52786;SDS011;38661;53.152;5.846;2022-12-07T13:28:39;5.22;;;2.10;;
52786;SDS011;38661;53.152;5.846;2022-12-07T13:33:36;6.45;;;1.75;;
52786;SDS011;38661;53.152;5.846;2022-12-07T13:36:02;3.88;;;1.30;;
52786;SDS011;38661;53.152;5.846;2022-12-07T13:38:29;4.65;;;1.00;;
52786;SDS011;38661;53.152;5.846;2022-12-07T13:41:04;3.70;;;1.00;;
52786;SDS011;38661;53.152;5.846;2022-12-07T13:46:19;4.22;;;1.20;;
52786;SDS011;38661;53.152;5.846;2022-12-07T13:49:01;4.88;;;2.30;;
52786;SDS011;38661;53.152;5.846;2022-12-07T13:51:27;2.90;;;1.45;;
52786;SDS011;38661;53.152;5.846;2022-12-07T13:54:00;4.95;;;1.10;;
52786;SDS011;38661;53.152;5.846;2022-12-07T13:56:34;4.93;;;0.90;;
52786;SDS011;38661;53.152;5.846;2022-12-07T13:59:01;2.65;;;0.88;;
52786;SDS011;38661;53.152;5.846;2022-12-07T14:01:28;4.55;;;1.88;;
52786;SDS011;38661;53.152;5.846;2022-12-07T14:03:56;6.20;;;1.95;;
52786;SDS011;38661;53.152;5.846;2022-12-07T14:07:21;5.55;;;1.98;;
52786;SDS011;38661;53.152;5.846;2022-12-07T14:09:56;7.10;;;2.03;;
52786;SDS011;38661;53.152;5.846;2022-12-07T14:12:24;4.97;;;2.08;;
52786;SDS011;38661;53.152;5.846;2022-12-07T14:14:51;5.75;;;1.27;;
52786;SDS011;38661;53.152;5.846;2022-12-07T14:17:18;2.10;;;1.10;;
52786;SDS011;38661;53.152;5.846;2022-12-07T14:19:58;3.25;;;1.42;;
52786;SDS011;38661;53.152;5.846;2022-12-07T14:22:32;5.78;;;2.20;;
52786;SDS011;38661;53.152;5.846;2022-12-07T14:30:21;7.53;;;3.22;;
52786;SDS011;38661;53.152;5.846;2022-12-07T14:32:53;5.53;;;2.00;;
52786;SDS011;38661;53.152;5.846;2022-12-07T14:35:29;4.38;;;2.67;;
52786;SDS011;38661;53.152;5.846;2022-12-07T14:37:56;4.10;;;2.40;;
52786;SDS011;38661;53.152;5.846;2022-12-07T14:40:26;4.47;;;2.28;;
52786;SDS011;38661;53.152;5.846;2022-12-07T14:42:58;4.22;;;1.77;;
52786;SDS011;38661;53.152;5.846;2022-12-07T14:45:26;3.80;;;1.00;;
52786;SDS011;38661;53.152;5.846;2022-12-07T14:47:52;5.97;;;1.40;;
52786;SDS011;38661;53.152;5.846;2022-12-07T14:50:19;3.80;;;0.95;;
52786;SDS011;38661;53.152;5.846;2022-12-07T14:52:50;4.82;;;1.38;;
52786;SDS011;38661;53.152;5.846;2022-12-07T14:55:22;4.10;;;1.25;;
52786;SDS011;38661;53.152;5.846;2022-12-07T14:57:49;6.78;;;1.50;;
52786;SDS011;38661;53.152;5.846;2022-12-07T15:00:15;3.97;;;1.20;;
52786;SDS011;38661;53.152;5.846;2022-12-07T15:02:43;2.47;;;0.98;;
52786;SDS011;38661;53.152;5.846;2022-12-07T15:05:09;5.07;;;2.40;;
52786;SDS011;38661;53.152;5.846;2022-12-07T15:07:35;4.13;;;1.42;;
52786;SDS011;38661;53.152;5.846;2022-12-07T15:10:01;3.53;;;0.85;;
52786;SDS011;38661;53.152;5.846;2022-12-07T15:12:27;4.43;;;1.48;;
52786;SDS011;38661;53.152;5.846;2022-12-07T15:14:53;4.97;;;1.10;;
52786;SDS011;38661;53.152;5.846;2022-12-07T15:17:18;5.28;;;1.23;;
52786;SDS011;38661;53.152;5.846;2022-12-07T15:19:44;6.05;;;2.47;;
52786;SDS011;38661;53.152;5.846;2022-12-07T15:22:09;8.00;;;1.70;;
52786;SDS011;38661;53.152;5.846;2022-12-07T15:24:36;4.97;;;1.23;;
52786;SDS011;38661;53.152;5.846;2022-12-07T15:27:02;8.15;;;1.13;;
52786;SDS011;38661;53.152;5.846;2022-12-07T15:29:28;4.45;;;1.13;;
52786;SDS011;38661;53.152;5.846;2022-12-07T15:31:54;3.70;;;0.95;;
52786;SDS011;38661;53.152;5.846;2022-12-07T15:34:20;2.00;;;0.68;;
52786;SDS011;38661;53.152;5.846;2022-12-07T15:36:46;5.45;;;1.00;;
52786;SDS011;38661;53.152;5.846;2022-12-07T15:39:12;3.00;;;1.10;;
52786;SDS011;38661;53.152;5.846;2022-12-07T15:41:38;3.30;;;0.80;;
52786;SDS011;38661;53.152;5.846;2022-12-07T15:44:03;6.43;;;2.22;;
52786;SDS011;38661;53.152;5.846;2022-12-07T15:46:49;5.82;;;2.53;;
52786;SDS011;38661;53.152;5.846;2022-12-07T15:49:16;9.82;;;3.25;;
52786;SDS011;38661;53.152;5.846;2022-12-07T15:51:43;15.05;;;7.90;;
52786;SDS011;38661;53.152;5.846;2022-12-07T15:54:14;11.23;;;6.80;;
52786;SDS011;38661;53.152;5.846;2022-12-07T15:56:44;11.80;;;5.68;;
52786;SDS011;38661;53.152;5.846;2022-12-07T15:59:09;11.57;;;5.80;;
52786;SDS011;38661;53.152;5.846;2022-12-07T16:01:35;29.23;;;16.48;;
52786;SDS011;38661;53.152;5.846;2022-12-07T16:04:01;66.53;;;39.58;;
52786;SDS011;38661;53.152;5.846;2022-12-07T16:06:26;26.95;;;14.00;;
52786;SDS011;38661;53.152;5.846;2022-12-07T16:08:52;30.52;;;19.77;;
52786;SDS011;38661;53.152;5.846;2022-12-07T16:11:18;17.77;;;12.13;;
52786;SDS011;38661;53.152;5.846;2022-12-07T16:13:43;55.85;;;39.35;;
52786;SDS011;38661;53.152;5.846;2022-12-07T16:16:10;39.53;;;29.25;;
52786;SDS011;38661;53.152;5.846;2022-12-07T16:18:38;21.23;;;16.55;;
52786;SDS011;38661;53.152;5.846;2022-12-07T16:21:04;16.92;;;11.13;;
52786;SDS011;38661;53.152;5.846;2022-12-07T16:23:30;19.75;;;16.00;;
52786;SDS011;38661;53.152;5.846;2022-12-07T16:26:06;8.48;;;5.70;;
52786;SDS011;38661;53.152;5.846;2022-12-07T16:28:36;8.40;;;4.50;;
52786;SDS011;38661;53.152;5.846;2022-12-07T16:31:10;6.40;;;2.85;;
52786;SDS011;38661;53.152;5.846;2022-12-07T16:33:38;5.45;;;3.33;;
52786;SDS011;38661;53.152;5.846;2022-12-07T16:36:05;5.63;;;2.30;;
52786;SDS011;38661;53.152;5.846;2022-12-07T16:38:32;8.23;;;2.30;;
52786;SDS011;38661;53.152;5.846;2022-12-07T16:40:58;4.70;;;2.17;;
52786;SDS011;38661;53.152;5.846;2022-12-07T16:43:23;5.53;;;2.30;;
52786;SDS011;38661;53.152;5.846;2022-12-07T16:45:49;5.85;;;2.10;;
52786;SDS011;38661;53.152;5.846;2022-12-07T16:48:15;7.15;;;2.72;;
52786;SDS011;38661;53.152;5.846;2022-12-07T16:50:42;10.25;;;3.13;;
52786;SDS011;38661;53.152;5.846;2022-12-07T16:53:09;7.28;;;2.05;;
52786;SDS011;38661;53.152;5.846;2022-12-07T16:55:36;9.85;;;2.17;;
52786;SDS011;38661;53.152;5.846;2022-12-07T16:58:07;13.38;;;3.00;;
52786;SDS011;38661;53.152;5.846;2022-12-07T17:00:33;6.82;;;2.45;;
52786;SDS011;38661;53.152;5.846;2022-12-07T17:02:59;7.95;;;3.17;;
52786;SDS011;38661;53.152;5.846;2022-12-07T17:05:26;8.20;;;2.13;;
52786;SDS011;38661;53.152;5.846;2022-12-07T17:07:54;7.88;;;2.47;;
52786;SDS011;38661;53.152;5.846;2022-12-07T17:10:20;10.50;;;3.65;;
52786;SDS011;38661;53.152;5.846;2022-12-07T17:12:47;8.15;;;2.47;;
52786;SDS011;38661;53.152;5.846;2022-12-07T17:15:13;8.70;;;2.15;;
52786;SDS011;38661;53.152;5.846;2022-12-07T17:17:46;7.82;;;2.60;;
52786;SDS011;38661;53.152;5.846;2022-12-07T17:20:17;6.00;;;3.22;;
52786;SDS011;38661;53.152;5.846;2022-12-07T17:22:43;9.85;;;2.10;;
52786;SDS011;38661;53.152;5.846;2022-12-07T17:25:09;8.02;;;2.15;;
52786;SDS011;38661;53.152;5.846;2022-12-07T17:27:35;8.30;;;1.75;;
52786;SDS011;38661;53.152;5.846;2022-12-07T17:30:02;9.27;;;2.33;;
52786;SDS011;38661;53.152;5.846;2022-12-07T17:32:29;10.63;;;3.50;;